createdAt,value
2023-01-29T00:03:57.960Z,28.58
2023-01-29T00:07:59.698Z,29.02
2023-01-29T00:12:01.641Z,29.63
2023-01-29T00:16:04.249Z,29.70
2023-01-29T00:20:06.834Z,29.20
2023-01-29T00:24:08.650Z,28.58
2023-01-29T00:28:10.453Z,28.48
2023-01-29T00:32:12.367Z,28.45
2023-01-29T00:36:16.119Z,30.27
2023-01-29T00:40:18.213Z,27.83
2023-01-29T00:44:38.819Z,27.23
2023-01-29T00:48:40.909Z,27.23
2023-01-29T00:52:42.595Z,28.52
2023-01-29T00:56:44.238Z,27.50
2023-01-29T01:00:45.967Z,28.27
2023-01-29T01:04:47.688Z,28.05
2023-01-29T01:09:07.874Z,27.92
2023-01-29T01:13:09.604Z,27.37
2023-01-29T01:17:11.334Z,26.98
2023-01-29T01:21:13.161Z,27.42
2023-01-29T01:25:15.429Z,26.02
2023-01-29T01:29:17.229Z,26.87
2023-01-29T01:33:18.941Z,27.08
2023-01-29T01:37:20.734Z,28.50
2023-01-29T01:41:23.933Z,28.40
2023-01-29T01:45:34.139Z,31.42
2023-01-29T01:49:35.897Z,30.30
2023-01-29T01:53:43.281Z,29.67
2023-01-29T01:57:48.436Z,27.60
2023-01-29T02:01:54.256Z,28.30
2023-01-29T02:06:17.464Z,29.33
2023-01-29T02:10:20.244Z,31.67
2023-01-29T02:14:22.063Z,28.67
2023-01-29T02:18:23.770Z,27.05
2023-01-29T02:23:03.849Z,26.87
2023-01-29T02:27:28.560Z,28.17
2023-01-29T02:31:41.157Z,26.77
2023-01-29T02:36:14.931Z,24.65
2023-01-29T02:40:44.005Z,27.27
2023-01-29T02:44:53.458Z,28.15
2023-01-29T02:49:04.725Z,26.58
2023-01-29T02:53:13.544Z,27.17
2023-01-29T02:57:24.399Z,27.13
2023-01-29T03:01:49.790Z,27.10
2023-01-29T03:06:20.608Z,28.52
2023-01-29T03:10:40.795Z,27.90
2023-01-29T03:15:01.632Z,30.88
2023-01-29T03:19:08.776Z,30.83
2023-01-29T03:23:23.769Z,30.35
2023-01-29T03:27:50.117Z,28.60
2023-01-29T03:32:07.889Z,29.73
2023-01-29T03:36:16.400Z,28.55
2023-01-29T03:40:18.540Z,28.12
2023-01-29T03:44:40.277Z,28.00
2023-01-29T03:48:54.241Z,30.00
2023-01-29T03:53:14.200Z,28.70
2023-01-29T03:57:31.429Z,29.55
2023-01-29T04:01:47.507Z,30.23
2023-01-29T04:06:09.682Z,31.90
2023-01-29T04:10:18.481Z,30.02
2023-01-29T04:14:20.681Z,28.10
2023-01-29T04:18:24.063Z,29.98
2023-01-29T04:22:31.916Z,30.45
2023-01-29T04:26:48.743Z,31.10
2023-01-29T04:30:59.481Z,30.45
2023-01-29T04:35:31.537Z,33.00
2023-01-29T04:39:44.638Z,31.45
2023-01-29T04:44:03.340Z,30.92
2023-01-29T04:48:08.061Z,30.83
2023-01-29T04:52:41.587Z,31.40
2023-01-29T04:56:54.495Z,31.37
2023-01-29T05:00:58.758Z,29.90
2023-01-29T05:05:00.810Z,29.48
2023-01-29T05:09:03.196Z,29.75
2023-01-29T05:13:08.522Z,29.50
2023-01-29T05:17:15.780Z,30.10
2023-01-29T05:21:18.190Z,31.83
2023-01-29T05:25:29.271Z,30.25
2023-01-29T05:29:31.249Z,30.60
2023-01-29T05:33:33.158Z,30.55
2023-01-29T05:37:34.914Z,32.10
2023-01-29T05:41:36.710Z,31.05
2023-01-29T05:45:38.427Z,31.30
2023-01-29T05:49:40.301Z,31.15
2023-01-29T05:53:41.987Z,29.85
2023-01-29T05:57:43.711Z,30.55
2023-01-29T06:01:45.511Z,29.90
2023-01-29T06:05:47.252Z,29.85
2023-01-29T06:09:48.985Z,30.15
2023-01-29T06:13:50.950Z,30.27
2023-01-29T06:17:56.862Z,30.55
2023-01-29T06:21:58.646Z,30.83
2023-01-29T06:26:02.312Z,31.40
2023-01-29T06:30:05.730Z,30.15
2023-01-29T06:34:08.179Z,31.02
2023-01-29T06:38:09.790Z,29.60
2023-01-29T06:42:11.492Z,30.27
2023-01-29T06:46:13.642Z,30.27
2023-01-29T06:50:15.771Z,29.75
2023-01-29T06:54:17.810Z,30.05
2023-01-29T06:58:20.698Z,29.95
2023-01-29T07:02:22.736Z,29.33
2023-01-29T07:06:28.845Z,29.98
2023-01-29T07:10:31.001Z,29.87
2023-01-29T07:14:32.735Z,29.60
2023-01-29T07:18:34.455Z,29.50
2023-01-29T07:22:36.425Z,29.40
2023-01-29T07:26:38.075Z,29.75
2023-01-29T07:30:39.732Z,30.73
2023-01-29T07:34:41.440Z,30.52
2023-01-29T07:38:43.260Z,31.12
2023-01-29T07:42:45.429Z,29.17
2023-01-29T07:46:47.184Z,30.02
2023-01-29T07:50:56.747Z,29.70
2023-01-29T07:54:58.681Z,32.25
2023-01-29T07:59:00.406Z,29.67
2023-01-29T08:03:04.022Z,31.67
2023-01-29T08:07:05.780Z,30.73
2023-01-29T08:11:07.503Z,31.17
2023-01-29T08:15:09.736Z,30.42
2023-01-29T08:19:11.419Z,29.83
2023-01-29T08:23:15.228Z,29.87
2023-01-29T08:27:16.896Z,28.70
2023-01-29T08:31:20.694Z,30.52
2023-01-29T08:35:22.615Z,31.45
2023-01-29T08:39:24.354Z,28.05
2023-01-29T08:43:26.034Z,29.55
2023-01-29T08:47:28.722Z,29.48
2023-01-29T08:51:31.201Z,28.33
2023-01-29T08:55:32.891Z,30.12
2023-01-29T08:59:34.595Z,29.12
2023-01-29T09:03:37.033Z,28.83
2023-01-29T09:07:38.688Z,29.73
2023-01-29T09:11:40.582Z,27.55
2023-01-29T09:15:42.201Z,28.67
2023-01-29T09:19:43.838Z,28.67
2023-01-29T09:23:45.540Z,29.70
2023-01-29T09:27:47.228Z,29.67
2023-01-29T09:31:49.047Z,29.58
2023-01-29T09:35:50.790Z,27.87
2023-01-29T09:39:52.467Z,27.83
2023-01-29T09:44:01.991Z,28.52
2023-01-29T09:48:05.708Z,28.23
2023-01-29T09:52:25.169Z,28.75
2023-01-29T09:56:28.879Z,28.55
2023-01-29T10:00:51.854Z,28.40
2023-01-29T10:04:56.548Z,28.23
2023-01-29T10:09:13.708Z,29.17
2023-01-29T10:17:35.328Z,28.05
2023-01-29T10:22:14.685Z,27.48
2023-01-29T10:26:18.448Z,28.60
2023-01-29T10:30:40.036Z,27.70
2023-01-29T10:35:17.452Z,26.08
2023-01-29T10:39:21.881Z,26.67
2023-01-29T10:43:47.580Z,25.50
2023-01-29T10:48:26.247Z,27.23
2023-01-29T10:53:13.557Z,28.70
2023-01-29T10:57:31.583Z,26.87
2023-01-29T11:01:33.332Z,26.60
2023-01-29T11:05:44.173Z,27.27
2023-01-29T11:09:50.199Z,27.83
2023-01-29T11:14:06.843Z,28.00
2023-01-29T11:18:15.389Z,26.87
2023-01-29T11:22:20.220Z,27.70
2023-01-29T11:26:23.784Z,27.95
2023-01-29T11:30:37.210Z,28.60
2023-01-29T11:35:00.736Z,28.77
2023-01-29T11:39:08.547Z,26.17
2023-01-29T11:43:21.867Z,27.55
2023-01-29T11:47:28.461Z,25.90
2023-01-29T11:51:30.473Z,27.25
2023-01-29T11:55:49.878Z,27.42
2023-01-29T11:59:54.815Z,26.85
2023-01-29T12:03:56.712Z,26.75
2023-01-29T12:08:00.757Z,27.48
2023-01-29T12:12:29.643Z,26.45
2023-01-29T12:16:39.337Z,26.17
2023-01-29T12:20:54.500Z,26.73
2023-01-29T12:25:22.522Z,26.42
2023-01-29T12:29:30.016Z,26.02
2023-01-29T12:33:34.674Z,27.05
2023-01-29T12:37:54.326Z,26.60
2023-01-29T12:42:04.667Z,26.67
2023-01-29T12:46:14.226Z,26.90
2023-01-29T12:50:32.285Z,27.92
2023-01-29T12:54:51.865Z,27.60
2023-01-29T12:58:55.472Z,27.37
2023-01-29T13:03:19.469Z,27.50
2023-01-29T13:07:28.233Z,26.35
2023-01-29T13:11:35.231Z,33.50
2023-01-29T13:19:47.218Z,25.33
2023-01-29T13:23:55.582Z,25.30
2023-01-29T13:27:58.059Z,28.52
2023-01-29T13:32:03.308Z,29.02
2023-01-29T13:36:05.613Z,27.67
2023-01-29T13:40:08.356Z,27.60
2023-01-29T13:44:34.204Z,28.98
2023-01-29T13:48:46.676Z,27.58
2023-01-29T13:53:02.155Z,27.20
2023-01-29T13:57:04.175Z,28.08
2023-01-29T14:01:05.876Z,27.90
2023-01-29T14:05:29.231Z,26.67
2023-01-29T14:09:33.991Z,27.10
2023-01-29T14:13:36.569Z,27.30
2023-01-29T14:17:38.809Z,26.52
2023-01-29T14:21:41.056Z,26.83
2023-01-29T14:25:42.745Z,27.90
2023-01-29T14:29:44.726Z,28.80
2023-01-29T14:33:46.481Z,26.85
2023-01-29T14:37:51.320Z,25.52
2023-01-29T14:41:53.423Z,27.08
2023-01-29T14:45:55.139Z,24.80
2023-01-29T14:49:59.068Z,25.98
2023-01-29T14:54:25.146Z,25.48
2023-01-29T14:58:37.882Z,25.67
2023-01-29T15:02:44.468Z,24.98
2023-01-29T15:06:59.066Z,25.25
2023-01-29T15:11:25.459Z,24.98
2023-01-29T15:15:46.395Z,25.40
2023-01-29T15:19:49.307Z,23.80
2023-01-29T15:24:04.474Z,25.37
2023-01-29T15:28:10.976Z,25.08
2023-01-29T15:32:29.552Z,23.62
2023-01-29T15:36:32.021Z,23.48
2023-01-29T15:40:34.569Z,24.33
2023-01-29T15:44:36.797Z,23.35
2023-01-29T15:48:41.331Z,22.67
2023-01-29T15:52:43.316Z,22.35
2023-01-29T15:56:48.234Z,22.00
2023-01-29T16:00:53.512Z,20.98
2023-01-29T16:04:55.646Z,19.27
2023-01-29T16:08:59.197Z,18.77
2023-01-29T16:13:01.143Z,18.85
2023-01-29T16:17:26.503Z,16.08
2023-01-29T16:21:38.078Z,16.25
2023-01-29T16:25:39.793Z,15.35
2023-01-29T16:29:41.629Z,15.90
2023-01-29T16:33:45.250Z,14.98
2023-01-29T16:37:49.523Z,16.27
2023-01-29T16:42:21.353Z,15.55
2023-01-29T16:46:28.182Z,14.65
2023-01-29T16:50:46.350Z,16.40
2023-01-29T16:55:20.019Z,15.02
2023-01-29T16:59:36.100Z,17.05
2023-01-29T17:03:39.092Z,16.75
2023-01-29T17:07:45.906Z,15.60
2023-01-29T17:11:50.224Z,16.83
2023-01-29T17:15:51.941Z,16.65
2023-01-29T17:19:53.625Z,16.50
2023-01-29T17:23:55.394Z,16.42
2023-01-29T17:28:00.639Z,16.98
2023-01-29T17:32:02.423Z,16.85
2023-01-29T17:36:04.385Z,17.12
2023-01-29T17:40:25.848Z,17.48
2023-01-29T17:44:27.548Z,16.90
2023-01-29T17:48:30.505Z,17.48
2023-01-29T17:52:32.367Z,17.15
2023-01-29T17:56:34.013Z,17.37
2023-01-29T18:00:35.791Z,17.00
2023-01-29T18:04:38.640Z,16.17
2023-01-29T18:08:40.368Z,16.70
2023-01-29T18:12:42.094Z,17.87
2023-01-29T18:16:44.823Z,18.08
2023-01-29T18:20:46.937Z,18.83
2023-01-29T18:24:48.634Z,18.30
2023-01-29T18:28:50.321Z,16.95
2023-01-29T18:32:53.183Z,17.87
2023-01-29T18:36:54.816Z,19.02
2023-01-29T18:41:04.227Z,16.80
2023-01-29T18:45:07.411Z,19.80
2023-01-29T18:49:09.048Z,17.87
2023-01-29T18:53:10.721Z,17.90
2023-01-29T18:57:13.595Z,17.17
2023-01-29T19:01:18.057Z,17.55
2023-01-29T19:05:22.704Z,17.83
2023-01-29T19:09:24.529Z,17.83
2023-01-29T19:13:26.862Z,18.52
2023-01-29T19:17:28.570Z,17.55
2023-01-29T19:21:35.649Z,19.67
2023-01-29T19:29:40.477Z,17.20
2023-01-29T19:33:42.541Z,18.08
2023-01-29T19:37:44.569Z,17.85
2023-01-29T19:41:46.258Z,18.10
2023-01-29T19:45:50.457Z,17.40
2023-01-29T19:49:52.512Z,17.50
2023-01-29T19:53:54.298Z,16.50
2023-01-29T19:57:57.979Z,17.85
2023-01-29T20:01:59.771Z,17.95
2023-01-29T20:06:03.754Z,16.55
2023-01-29T20:10:07.083Z,17.37
2023-01-29T20:14:10.884Z,19.33
2023-01-29T20:18:13.392Z,15.95
2023-01-29T20:22:15.529Z,19.17
2023-01-29T20:26:18.254Z,18.55
2023-01-29T20:30:20.296Z,17.67
2023-01-29T20:34:22.337Z,18.02
2023-01-29T20:38:25.984Z,19.25
2023-01-29T20:42:27.643Z,18.48
2023-01-29T20:46:29.936Z,18.75
2023-01-29T20:50:31.628Z,18.83
2023-01-29T20:54:34.388Z,18.58
2023-01-29T20:58:36.594Z,19.37
2023-01-29T21:02:38.250Z,18.33
2023-01-29T21:06:39.930Z,17.25
2023-01-29T21:10:43.412Z,18.25
2023-01-29T21:14:46.370Z,17.27
2023-01-29T21:18:48.041Z,17.20
2023-01-29T21:22:49.738Z,18.52
2023-01-29T21:26:51.760Z,17.98
2023-01-29T21:31:03.188Z,17.23
2023-01-29T21:35:05.148Z,18.62
2023-01-29T21:39:16.473Z,17.25
2023-01-29T21:43:18.326Z,17.17
2023-01-29T21:47:22.091Z,17.00
2023-01-29T21:51:23.775Z,17.12
2023-01-29T21:55:25.477Z,16.48
2023-01-29T21:59:27.137Z,17.52
2023-01-29T22:03:28.854Z,17.85
2023-01-29T22:07:30.563Z,16.08
2023-01-29T22:11:32.351Z,16.98
2023-01-29T22:15:34.381Z,16.95
2023-01-29T22:19:36.062Z,16.25
2023-01-29T22:23:38.026Z,17.65
2023-01-29T22:27:39.724Z,17.58
2023-01-29T22:31:41.366Z,18.67
2023-01-29T22:35:43.021Z,18.05
2023-01-29T22:39:44.703Z,18.05
2023-01-29T22:43:46.630Z,18.25
2023-01-29T22:47:48.258Z,18.90
2023-01-29T22:52:10.191Z,18.40
2023-01-29T22:56:12.219Z,18.85
2023-01-29T23:00:14.265Z,19.92
2023-01-29T23:04:16.005Z,21.02
2023-01-29T23:08:17.799Z,19.75
2023-01-29T23:12:19.567Z,19.50
2023-01-29T23:16:26.990Z,19.05
2023-01-29T23:20:29.815Z,19.92
2023-01-29T23:24:31.587Z,20.00
2023-01-29T23:28:33.297Z,20.30
2023-01-29T23:32:35.208Z,18.40
2023-01-29T23:36:36.984Z,20.65
2023-01-29T23:40:38.718Z,20.05
2023-01-29T23:44:40.510Z,19.33
2023-01-29T23:48:42.195Z,18.45
2023-01-29T23:52:43.868Z,18.95
2023-01-29T23:56:46.573Z,19.55
